Flight Track Log - Related Links

Times and Time Zones

All times are in EDT time to prevent confusion due to time zone crossing. See the SVA1460 flight status page for this flight to view local times or setup timezone preferences in your user account.

Time Position Orientation Groundspeed Altitude Reporting Facility
EDT Latitude Longitude Course Direction KTS MPH feet Rate Location/Type
Mon 02:58:00 AM 21.9673 39.2104 10° North  Level Estimated
Mon 02:59:00 AM 22.0392 39.2239 10° North  Level Estimated
Mon 03:00:00 AM 22.1112 39.2374 10° North  Level Estimated
Mon 03:01:00 AM 22.1831 39.2509 10° North  Level Estimated
Mon 03:02:00 AM 22.2550 39.2645 10° North  Level Estimated
Mon 03:03:00 AM 22.3269 39.2780 10° North  Level Estimated
Mon 03:04:00 AM 22.3989 39.2916 10° North  Level Estimated
Mon 03:05:00 AM 22.4708 39.3052 10° North  Level Estimated
Mon 03:06:00 AM 22.5427 39.3188 10° North  Level Estimated
Mon 03:07:00 AM 22.6146 39.3324 10° North  Level Estimated
Mon 03:08:00 AM 22.6866 39.3461 10° North  Level Estimated
Mon 03:09:00 AM 22.7585 39.3597 10° North  Level Estimated
Mon 03:10:00 AM 22.8384 39.3749 10° North  Level Estimated
Mon 03:11:00 AM 22.9183 39.3900 10° North  Level Estimated
Mon 03:12:00 AM 22.9982 39.4053 10° North  Level Estimated
Mon 03:13:00 AM 23.0781 39.4205 10° North  Level Estimated
Mon 03:14:00 AM 23.1580 39.4357 10° North  Level Estimated
Mon 03:15:00 AM 23.2379 39.4510 10° North  Level Estimated
Mon 03:16:00 AM 23.3178 39.4663 10° North  Level Estimated
Mon 03:17:00 AM 23.3977 39.4816 10° North  Level Estimated
Mon 03:18:00 AM 23.4776 39.4969 10° North  Level Estimated
Mon 03:19:00 AM 23.5575 39.5122 10° North  Level Estimated
Mon 03:20:00 AM 23.6374 39.5276 10° North  Level Estimated
Mon 03:21:00 AM 23.7173 39.5430 10° North  Level Estimated
Mon 03:22:00 AM 23.7972 39.5584 10° North  Level Estimated
Mon 03:23:00 AM 23.8771 39.5738 10° North  Level Estimated
Mon 03:24:00 AM 23.9569 39.5892 10° North  Level Estimated
Mon 03:25:00 AM 24.0368 39.6047 10° North  Level Estimated
Mon 03:26:00 AM 24.1167 39.6201 10° North  Level Estimated
Mon 03:27:00 AM 24.1966 39.6356 10° North  Level Estimated
Mon 03:28:00 AM 24.2765 39.6511 10° North  Level Estimated
Mon 03:29:00 AM 24.3563 39.6667 10° North  Level Estimated
Mon 03:30:00 AM 24.4362 39.6822 10° North  Level Estimated
Mon 03:31:00 AM 24.5161 39.6978 10° North  Level Estimated
Mon 03:32:00 AM 24.5534 39.7051 10° North  Level Estimated

Login

Don't have an account? Register now (free) for customized features, flight alerts, and more!